Time;durP1;ratioP1;P1;durP2;ratioP2;P2;SDS_P1;SDS_P2;PMS_P1;PMS_P2;Temp;Humidity;BMP_temperature;BMP_pressure;BME280_temperature;BME280_humidity;BME280_pressure;Samples;Min_cycle;Max_cycle;Signal;HPM_P1;HPM_P2
2021/07/22 09:09:29;;;;;;;4.62;1.07;;;;;;;22.57;44.17;98281.02;1871075;76;22405;-61
2021/07/22 09:11:59;;;;;;;5.58;1.67;;;;;;;22.53;45.89;98288.36;1827988;77;20911;-62
2021/07/22 09:14:29;;;;;;;5.25;1.20;;;;;;;22.67;47.26;98281.04;1834732;77;21035;-62
2021/07/22 09:17:00;;;;;;;4.60;1.25;;;;;;;22.83;45.81;98280.35;1831614;77;21381;-61
2021/07/22 09:19:40;;;;;;;2.45;0.82;;;;;;;22.90;44.32;98284.00;1844147;77;20868;-63
2021/07/22 09:22:09;;;;;;;2.70;1.00;;;;;;;22.93;43.01;98282.48;1842474;77;20915;-63
2021/07/22 09:24:51;;;;;;;2.72;1.25;;;;;;;22.91;43.41;98284.23;1823579;77;20982;-58
2021/07/22 09:27:40;;;;;;;2.90;1.10;;;;;;;22.86;44.82;98277.70;1793149;77;21174;-64
2021/07/22 09:30:16;;;;;;;2.75;1.20;;;;;;;22.77;43.57;98290.80;1820583;77;21562;-63
2021/07/22 09:32:48;;;;;;;2.42;1.10;;;;;;;22.72;43.87;98287.00;1832982;77;21101;-62
2021/07/22 09:35:21;;;;;;;3.60;1.20;;;;;;;22.78;43.81;98286.91;1829375;78;21638;-62
2021/07/22 09:37:53;;;;;;;3.10;1.27;;;;;;;22.88;44.45;98283.58;1831162;78;20975;-62
2021/07/22 09:40:31;;;;;;;6.67;1.37;;;;;;;23.04;45.16;98283.45;1830938;78;21089;-60
2021/07/22 09:42:58;;;;;;;4.40;1.55;;;;;;;23.11;44.76;98291.20;1830851;78;20959;-63
2021/07/22 09:45:35;;;;;;;4.08;1.25;;;;;;;22.99;44.73;98289.22;1829698;78;20904;-62
2021/07/22 09:48:10;;;;;;;;;;;;;;;22.81;44.94;98286.76;1830673;78;20932;-63
2021/07/22 09:50:44;;;;;;;8.55;1.57;;;;;;;22.67;45.41;98277.73;1827884;78;20115;-65
2021/07/22 09:53:12;;;;;;;5.40;1.40;;;;;;;22.68;46.40;98280.67;1828210;78;21651;-64
2021/07/22 09:55:41;;;;;;;5.78;1.20;;;;;;;22.80;45.33;98281.86;1826347;78;21433;-61
2021/07/22 09:58:10;;;;;;;4.50;1.30;;;;;;;22.94;44.24;98272.55;1825158;78;21512;-61
2021/07/22 10:00:41;;;;;;;5.05;1.37;;;;;;;23.07;43.79;98269.88;1827485;77;21553;-63
2021/07/22 10:03:12;;;;;;;4.05;1.30;;;;;;;23.24;43.95;98267.22;1826973;78;21046;-61
2021/07/22 10:06:00;;;;;;;5.12;1.20;;;;;;;23.48;44.05;98271.52;1827779;78;21540;-62
2021/07/22 10:08:27;;;;;;;7.35;1.40;;;;;;;23.64;43.57;98258.48;1816391;78;20938;-62
2021/07/22 10:10:55;;;;;;;5.30;1.40;;;;;;;23.61;43.12;98271.51;1828097;78;21367;-63
2021/07/22 10:13:27;;;;;;;3.75;1.50;;;;;;;23.43;42.66;98270.47;1828385;78;20943;-64
2021/07/22 10:15:58;;;;;;;5.33;1.40;;;;;;;23.24;44.01;98268.58;1797569;78;20879;-62
2021/07/22 10:18:26;;;;;;;1.87;1.20;;;;;;;23.24;44.94;98268.58;1795484;79;21257;-63
2021/07/22 10:20:56;;;;;;;4.58;1.30;;;;;;;23.39;43.87;98269.63;1757271;81;21532;-61
2021/07/22 10:23:23;;;;;;;3.62;1.22;;;;;;;23.53;43.96;98264.38;1756799;81;20875;-65
2021/07/22 10:25:53;;;;;;;3.85;1.27;;;;;;;23.66;42.56;98265.16;1757358;81;21080;-64
2021/07/22 10:28:19;;;;;;;3.58;1.42;;;;;;;23.62;42.40;98268.39;1757573;81;20954;-64
2021/07/22 10:30:46;;;;;;;3.10;1.15;;;;;;;23.51;42.29;98272.92;1757332;81;21101;-61
2021/07/22 10:33:16;;;;;;;3.52;1.15;;;;;;;23.54;42.11;98263.20;1756879;81;21394;-60
2021/07/22 10:35:43;;;;;;;2.70;1.32;;;;;;;23.61;41.60;98264.10;1777726;79;20923;-60
2021/07/22 10:38:20;;;;;;;3.22;1.20;;;;;;;23.60;40.89;98264.48;1785607;79;20939;-63
2021/07/22 10:40:45;;;;;;;4.42;1.30;;;;;;;23.48;41.54;98264.69;1763299;80;21278;-64
2021/07/22 10:43:41;;;;;;;4.30;1.35;;;;;;;23.29;42.26;98271.58;1757491;81;21062;-60
2021/07/22 10:46:17;;;;;;;3.08;1.10;;;;;;;23.16;43.54;98277.80;1741281;82;21172;-62
2021/07/22 10:48:45;;;;;;;2.75;1.17;;;;;;;23.14;42.04;98272.72;1792586;79;20972;-64
2021/07/22 10:51:15;;;;;;;6.08;1.50;;;;;;;23.33;43.95;98263.64;1792881;79;21070;-60
2021/07/22 10:53:48;;;;;;;2.52;1.60;;;;;;;23.62;42.05;98258.06;1793417;80;20989;-62
2021/07/22 10:56:26;;;;;;;3.58;1.32;;;;;;;23.83;41.46;98257.75;1793212;80;21765;-62
2021/07/22 10:58:57;;;;;;;5.70;1.30;;;;;;;23.97;40.80;98259.91;1789992;78;21060;-61
2021/07/22 11:01:49;;;;;;;2.77;1.10;;;;;;;23.95;41.72;98269.64;1793055;80;21405;-63
2021/07/22 11:04:37;;;;;;;5.05;1.15;;;;;;;23.84;42.01;98264.02;1793354;80;20978;-60
2021/07/22 11:07:03;;;;;;;4.45;1.25;;;;;;;23.73;42.24;98269.36;1820981;78;20887;-64
2021/07/22 11:09:58;;;;;;;7.08;1.55;;;;;;;23.67;42.47;98270.05;1815417;78;21169;-60
2021/07/22 11:12:45;;;;;;;3.22;1.17;;;;;;;23.80;42.71;98263.19;1811007;78;20943;-63
2021/07/22 11:15:47;;;;;;;3.25;1.10;;;;;;;24.03;42.82;98266.62;1810715;79;21032;-61
2021/07/22 11:18:45;;;;;;;3.72;1.35;;;;;;;24.24;41.17;98266.12;1815880;78;20972;-63
2021/07/22 11:21:19;;;;;;;2.60;1.10;;;;;;;24.41;41.89;98266.91;1777177;80;21011;-63
2021/07/22 11:23:55;;;;;;;4.87;1.10;;;;;;;24.44;40.53;98256.02;1775273;79;21026;-64
2021/07/22 11:26:28;;;;;;;4.55;1.00;;;;;;;24.33;40.42;98257.83;1771401;79;21358;-59
2021/07/22 11:28:55;;;;;;;4.62;1.30;;;;;;;24.17;40.05;98255.87;1746388;82;20884;-63
2021/07/22 11:31:22;;;;;;;4.28;1.20;;;;;;;23.99;40.52;98260.32;1759149;79;20962;-61
2021/07/22 11:33:49;;;;;;;1.80;1.10;;;;;;;23.95;41.08;98254.03;1735925;81;21027;-59
2021/07/22 11:36:22;;;;;;;5.22;1.10;;;;;;;24.15;41.28;98256.05;1769946;80;21780;-64
2021/07/22 11:38:53;;;;;;;5.85;1.30;;;;;;;24.48;42.08;98246.45;1763261;81;21090;-62
2021/07/22 11:41:21;;;;;;;2.50;1.37;;;;;;;24.81;39.81;98249.17;1762813;81;21018;-63
2021/07/22 11:43:55;;;;;;;3.70;1.22;;;;;;;25.09;38.53;98247.26;1769253;81;20965;-63
2021/07/22 11:46:43;;;;;;;3.87;1.20;;;;;;;25.28;37.28;98238.00;1774152;81;20976;-63
2021/07/22 11:49:17;;;;;;;2.72;1.30;;;;;;;25.34;37.76;98234.55;1770012;81;21107;-60
2021/07/22 11:51:46;;;;;;;3.15;1.00;;;;;;;25.24;38.34;98247.58;1762848;81;21437;-60
